Time;durP1;ratioP1;P1;durP2;ratioP2;P2;SDS_P1;SDS_P2;PMS_P1;PMS_P2;Temp;Humidity;BMP_temperature;BMP_pressure;BME280_temperature;BME280_humidity;BME280_pressure;Samples;Min_cycle;Max_cycle;Signal;HPM_P1;HPM_P2
2023/03/03 00:01:29;;;;;;;52.53;24.08;;;0.40;1.90;;;;;;5036126;28;20028;-51
2023/03/03 00:03:55;;;;;;;38.45;23.50;;;0.40;6.90;;;;;;5052385;28;20056;-52
2023/03/03 00:06:20;;;;;;;38.25;22.17;;;0.40;5.30;;;;;;5053416;28;20060;-50
2023/03/03 00:08:46;;;;;;;39.13;23.52;;;0.30;2.70;;;;;;5053481;28;20033;-50
2023/03/03 00:11:12;;;;;;;34.90;23.60;;;0.30;7.20;;;;;;5053251;28;20098;-51
2023/03/03 00:13:46;;;;;;;37.65;23.10;;;0.20;13.80;;;;;;5053411;28;20029;-50
2023/03/03 00:16:30;;;;;;;36.88;22.42;;;0.20;15.80;;;;;;5053633;28;20021;-52
2023/03/03 00:18:56;;;;;;;39.53;24.38;;;0.20;15.70;;;;;;5052075;28;20078;-50
2023/03/03 00:21:25;;;;;;;37.80;23.10;;;0.20;99.90;;;;;;5053188;28;20027;-49
2023/03/03 00:23:51;;;;;;;36.15;21.45;;;0.20;99.90;;;;;;5052105;28;20507;-50
2023/03/03 00:26:35;;;;;;;40.08;23.13;;;0.10;99.90;;;;;;5053072;28;20033;-53
2023/03/03 00:29:01;;;;;;;44.17;23.15;;;0.00;99.90;;;;;;5053183;28;20112;-53
2023/03/03 00:31:34;;;;;;;41.08;22.67;;;0.00;99.90;;;;;;5052867;28;20032;-50
2023/03/03 00:34:25;;;;;;;41.30;22.65;;;0.00;99.90;;;;;;5053063;28;20025;-51
2023/03/03 00:36:55;;;;;;;37.70;22.67;;;0.00;99.90;;;;;;5052545;28;20025;-52
2023/03/03 00:39:26;;;;;;;39.15;22.95;;;-0.10;99.90;;;;;;5052973;28;20025;-50
2023/03/03 00:41:52;;;;;;;36.25;20.98;;;-0.10;99.90;;;;;;5052921;28;20023;-53
2023/03/03 00:44:57;;;;;;;47.25;22.08;;;-0.20;99.90;;;;;;5051713;28;20415;-51
2023/03/03 00:47:36;;;;;;;44.17;24.17;;;-0.10;99.90;;;;;;5051240;28;20087;-50
2023/03/03 00:50:05;;;;;;;40.70;22.58;;;-0.20;99.90;;;;;;5052843;28;20104;-49
2023/03/03 00:52:34;;;;;;;45.35;22.38;;;-0.20;99.90;;;;;;5052444;28;20033;-50
2023/03/03 00:55:00;;;;;;;38.75;23.20;;;-0.20;99.90;;;;;;5052652;28;20029;-52
2023/03/03 00:57:26;;;;;;;41.38;23.73;;;-0.20;99.90;;;;;;5052556;28;20528;-52
2023/03/03 00:59:51;;;;;;;44.53;22.23;;;-0.20;99.90;;;;;;5052680;28;20025;-52
2023/03/03 01:02:17;;;;;;;37.17;22.73;;;-0.20;99.90;;;;;;5052534;28;20036;-54
2023/03/03 01:04:47;;;;;;;39.05;23.35;;;-0.30;99.90;;;;;;5052496;28;20083;-51
2023/03/03 01:07:13;;;;;;;39.15;22.88;;;-0.30;99.90;;;;;;5052507;28;20100;-50
2023/03/03 01:09:39;;;;;;;40.10;21.30;;;-0.30;99.90;;;;;;5052368;28;20540;-52
2023/03/03 01:12:05;;;;;;;42.55;24.83;;;-0.30;99.90;;;;;;5052196;28;20400;-50
2023/03/03 01:14:31;;;;;;;39.65;21.38;;;-0.30;99.90;;;;;;5050839;28;20032;-51
2023/03/03 01:16:58;;;;;;;41.35;22.20;;;-0.40;99.90;;;;;;5052218;28;20032;-51
2023/03/03 01:19:24;;;;;;;39.47;22.02;;;-0.40;99.90;;;;;;5052044;28;20066;-52
2023/03/03 01:21:50;;;;;;;39.13;22.25;;;-0.50;99.90;;;;;;5052144;28;20029;-51
2023/03/03 01:24:16;;;;;;;34.55;22.10;;;-0.50;99.90;;;;;;5052129;28;20024;-50
2023/03/03 01:26:41;;;;;;;37.42;24.17;;;-0.50;99.90;;;;;;5052069;28;20024;-51
2023/03/03 01:29:07;;;;;;;40.97;23.48;;;-0.50;99.90;;;;;;5052120;28;20033;-50
2023/03/03 01:31:33;;;;;;;36.63;21.85;;;-0.60;99.90;;;;;;5050718;28;20028;-54
2023/03/03 01:33:58;;;;;;;41.53;21.88;;;-0.60;99.90;;;;;;5052052;28;20021;-50
2023/03/03 01:36:25;;;;;;;41.03;22.27;;;-0.60;99.90;;;;;;5051831;28;20021;-51
2023/03/03 01:38:51;;;;;;;38.30;25.05;;;-0.60;99.90;;;;;;5051843;28;20024;-51
2023/03/03 01:41:17;;;;;;;37.22;23.77;;;-0.60;99.90;;;;;;5051317;28;20548;-53
2023/03/03 01:43:45;;;;;;;37.35;23.83;;;-0.60;99.90;;;;;;5051907;28;20029;-50
2023/03/03 01:46:43;;;;;;;39.28;24.35;;;-0.60;99.90;;;;;;5051818;28;20121;-50
2023/03/03 01:49:19;;;;;;;38.72;24.23;;;-0.70;99.90;;;;;;5052054;28;20033;-52
2023/03/03 01:51:50;;;;;;;44.33;23.05;;;-0.70;99.90;;;;;;5051776;28;20033;-50
2023/03/03 01:54:39;;;;;;;42.17;23.85;;;-0.60;99.90;;;;;;5051672;28;20017;-54
2023/03/03 01:57:11;;;;;;;40.20;24.58;;;-0.60;99.90;;;;;;5051035;28;20044;-49
2023/03/03 01:59:42;;;;;;;42.00;23.55;;;-0.60;99.90;;;;;;5051499;28;20024;-50
2023/03/03 02:02:08;;;;;;;44.40;24.17;;;-0.60;99.90;;;;;;5051624;28;20040;-51
2023/03/03 02:04:35;;;;;;;38.28;23.33;;;-0.60;99.90;;;;;;5051433;28;20021;-50
2023/03/03 02:07:06;;;;;;;41.42;23.17;;;-0.50;99.90;;;;;;5051513;28;20032;-52
2023/03/03 02:09:35;;;;;;;51.20;24.92;;;-0.50;99.90;;;;;;5051437;28;20407;-50
2023/03/03 02:12:06;;;;;;;41.22;24.98;;;-0.60;99.90;;;;;;5051225;28;20140;-53
2023/03/03 02:14:32;;;;;;;35.67;21.80;;;-0.60;99.90;;;;;;5051240;28;20033;-54
2023/03/03 02:16:58;;;;;;;40.72;23.20;;;-0.60;99.90;;;;;;5051513;28;20051;-55
2023/03/03 02:19:49;;;;;;;42.50;25.88;;;-0.70;99.90;;;;;;5051403;28;20103;-52
2023/03/03 02:22:20;;;;;;;43.03;22.88;;;-0.70;99.90;;;;;;5051331;28;20075;-54
2023/03/03 02:24:53;;;;;;;42.45;22.60;;;-0.70;99.90;;;;;;5033742;28;20028;-52
2023/03/03 02:27:18;;;;;;;48.88;25.00;;;-0.60;99.90;;;;;;5051181;28;20098;-50
2023/03/03 02:29:44;;;;;;;42.28;26.00;;;-0.60;99.90;;;;;;5051302;28;20025;-52
2023/03/03 02:32:10;;;;;;;42.72;24.58;;;-0.60;99.90;;;;;;5051238;28;20063;-53
2023/03/03 02:34:51;;;;;;;46.67;26.52;;;-0.70;99.90;;;;;;5051062;28;20049;-55
2023/03/03 02:37:17;;;;;;;48.35;26.85;;;-0.70;99.90;;;;;;5051072;28;20017;-52
2023/03/03 02:39:43;;;;;;;42.38;24.48;;;-0.70;99.90;;;;;;5049982;28;20487;-51
2023/03/03 02:42:24;;;;;;;51.15;27.10;;;-0.70;99.90;;;;;;5051128;28;20029;-53
2023/03/03 02:44:51;;;;;;;47.92;27.20;;;-0.70;99.90;;;;;;5051163;28;20367;-51
2023/03/03 02:47:16;;;;;;;45.05;26.73;;;-0.80;99.90;;;;;;5051155;28;20029;-52
2023/03/03 02:49:42;;;;;;;44.58;26.25;;;-0.70;99.90;;;;;;5050900;28;20028;-51
2023/03/03 02:52:09;;;;;;;44.67;27.00;;;-0.70;99.90;;;;;;5050975;28;20029;-51
2023/03/03 02:54:35;;;;;;;51.10;28.63;;;-0.80;99.90;;;;;;5053917;28;20051;-54
2023/03/03 02:57:02;;;;;;;44.60;25.92;;;-0.80;99.90;;;;;;5055036;28;20025;-52
2023/03/03 02:59:27;;;;;;;46.00;28.23;;;-0.90;99.90;;;;;;5054760;28;20100;-54
2023/03/03 03:01:53;;;;;;;41.88;24.55;;;-0.80;99.90;;;;;;5054908;28;20112;-50
2023/03/03 03:04:24;;;;;;;49.53;25.25;;;-0.90;99.90;;;;;;5054767;28;20691;-54
2023/03/03 03:06:50;;;;;;;51.90;29.05;;;-0.90;99.90;;;;;;5054727;28;20075;-52
2023/03/03 03:09:17;;;;;;;53.97;27.65;;;-1.00;99.90;;;;;;5054747;28;20529;-50
2023/03/03 03:11:43;;;;;;;54.10;26.95;;;-1.00;99.90;;;;;;5054612;28;20054;-51
2023/03/03 03:14:11;;;;;;;51.08;25.55;;;-1.10;99.90;;;;;;5054642;28;20365;-51
2023/03/03 03:16:37;;;;;;;41.42;24.77;;;-1.00;99.90;;;;;;5054231;28;20064;-50
2023/03/03 03:19:04;;;;;;;47.10;26.13;;;-1.10;99.90;;;;;;5054350;28;20056;-52
2023/03/03 03:21:31;;;;;;;48.60;28.73;;;-1.10;99.90;;;;;;5053101;28;20025;-50
2023/03/03 03:23:57;;;;;;;51.63;27.52;;;-1.00;99.90;;;;;;5054479;28;20029;-51
2023/03/03 03:26:23;;;;;;;49.13;27.50;;;-1.00;99.90;;;;;;5054243;28;20017;-51
2023/03/03 03:28:50;;;;;;;52.20;27.92;;;-1.00;99.90;;;;;;5054410;28;20472;-50
2023/03/03 03:31:17;;;;;;;58.60;29.75;;;-1.10;99.90;;;;;;5054255;28;20040;-50
2023/03/03 03:33:42;;;;;;;45.42;27.08;;;-1.10;99.90;;;;;;5054146;28;20079;-50
2023/03/03 03:36:09;;;;;;;45.30;26.05;;;-1.10;99.90;;;;;;5054278;28;20056;-50
2023/03/03 03:38:38;;;;;;;48.20;27.80;;;-1.10;99.90;;;;;;5052822;28;20480;-50
2023/03/03 03:41:05;;;;;;;53.00;28.95;;;-1.10;99.90;;;;;;5054149;28;20033;-51
2023/03/03 03:43:31;;;;;;;50.88;29.73;;;-1.10;99.90;;;;;;5053986;28;20458;-51
2023/03/03 03:45:56;;;;;;;47.13;27.88;;;-1.00;99.90;;;;;;5054021;28;20035;-50
2023/03/03 03:48:22;;;;;;;52.15;27.73;;;-1.00;99.90;;;;;;5053883;28;20086;-50
2023/03/03 03:50:49;;;;;;;58.17;28.13;;;-1.00;99.90;;;;;;5053887;28;20029;-49
2023/03/03 03:53:16;;;;;;;52.03;27.73;;;-1.00;99.90;;;;;;5053935;28;20472;-51
2023/03/03 03:55:43;;;;;;;59.65;28.85;;;-1.00;99.90;;;;;;5053762;28;20109;-55
2023/03/03 03:58:12;;;;;;;51.15;29.63;;;-1.00;99.90;;;;;;5052504;28;20508;-51
2023/03/03 04:00:40;;;;;;;54.80;28.77;;;-1.00;99.90;;;;;;5053681;28;20094;-51
2023/03/03 04:03:06;;;;;;;45.88;27.55;;;-1.00;99.90;;;;;;5053714;28;20453;-51
2023/03/03 04:05:32;;;;;;;48.70;29.00;;;-1.10;99.90;;;;;;5053260;28;20058;-51
2023/03/03 04:07:57;;;;;;;43.10;24.98;;;-1.10;99.90;;;;;;5053740;28;20095;-52
2023/03/03 04:10:23;;;;;;;40.90;25.88;;;-1.00;99.90;;;;;;5053215;28;20408;-52
2023/03/03 04:12:49;;;;;;;43.30;25.63;;;-1.10;99.90;;;;;;5052207;28;20028;-48
2023/03/03 04:15:14;;;;;;;52.53;28.58;;;-1.10;99.90;;;;;;5053548;28;20025;-53
2023/03/03 04:17:42;;;;;;;45.15;25.90;;;-1.00;99.90;;;;;;5053286;28;20415;-51
2023/03/03 04:20:11;;;;;;;47.67;26.77;;;-1.10;99.90;;;;;;5053450;28;20071;-50
2023/03/03 04:22:37;;;;;;;50.45;27.13;;;-1.00;99.90;;;;;;5053161;28;20025;-53
2023/03/03 04:25:04;;;;;;;49.58;27.75;;;-1.00;99.90;;;;;;5053362;28;20036;-51
2023/03/03 04:27:35;;;;;;;43.67;27.33;;;-1.00;99.90;;;;;;5053135;28;20100;-52
2023/03/03 04:30:01;;;;;;;41.50;26.05;;;-1.00;99.90;;;;;;5053249;28;20032;-51
2023/03/03 04:32:27;;;;;;;38.90;24.70;;;-1.00;99.90;;;;;;5052997;28;20029;-50
2023/03/03 04:34:52;;;;;;;48.05;24.77;;;-1.10;99.90;;;;;;5053168;28;20025;-50
2023/03/03 04:37:18;;;;;;;47.92;24.92;;;-1.00;99.90;;;;;;5051616;28;20040;-50
2023/03/03 04:39:44;;;;;;;64.45;28.83;;;-1.00;99.90;;;;;;5052966;28;20041;-50
2023/03/03 04:42:10;;;;;;;47.17;25.58;;;-1.00;99.90;;;;;;5053008;28;20032;-51
2023/03/03 04:44:36;;;;;;;40.22;22.92;;;-1.00;99.90;;;;;;5052832;28;20040;-52
2023/03/03 04:47:01;;;;;;;42.60;24.17;;;-0.90;99.90;;;;;;5052934;28;20021;-50
2023/03/03 04:49:27;;;;;;;41.35;23.67;;;-0.90;99.90;;;;;;5052903;28;20029;-51
2023/03/03 04:51:52;;;;;;;42.65;24.77;;;-1.00;99.90;;;;;;5052525;28;20039;-51
2023/03/03 04:54:18;;;;;;;47.03;24.33;;;-1.00;99.90;;;;;;5052657;28;20352;-51
2023/03/03 04:56:44;;;;;;;45.03;26.42;;;-1.00;99.90;;;;;;5052719;28;20643;-51
2023/03/03 04:59:10;;;;;;;38.78;23.45;;;-0.90;99.90;;;;;;5052612;28;20036;-51
2023/03/03 05:01:35;;;;;;;37.80;23.05;;;-0.90;99.90;;;;;;5052478;28;20025;-51
2023/03/03 05:04:01;;;;;;;50.25;23.95;;;-1.00;99.90;;;;;;5052635;28;20036;-50
2023/03/03 05:06:27;;;;;;;47.55;27.85;;;-0.90;99.90;;;;;;5052506;28;20106;-53
2023/03/03 05:08:52;;;;;;;42.88;24.83;;;-0.80;99.90;;;;;;5052379;28;20025;-50
2023/03/03 05:11:18;;;;;;;41.88;23.52;;;-0.80;99.90;;;;;;5051990;28;20041;-52
2023/03/03 05:13:44;;;;;;;39.35;23.55;;;-0.80;99.90;;;;;;5052400;28;20021;-51
2023/03/03 05:16:10;;;;;;;43.72;23.50;;;-0.90;99.90;;;;;;5051560;28;20021;-51
2023/03/03 05:18:36;;;;;;;51.65;25.23;;;-0.90;99.90;;;;;;5052197;28;20029;-51
2023/03/03 05:21:02;;;;;;;47.42;25.02;;;-1.00;99.90;;;;;;5052090;28;20080;-49
2023/03/03 05:23:28;;;;;;;50.38;25.73;;;-0.90;99.90;;;;;;5052075;28;20017;-52
2023/03/03 05:25:54;;;;;;;48.00;25.70;;;-0.80;99.90;;;;;;5052244;28;20367;-49
2023/03/03 05:28:19;;;;;;;43.67;25.27;;;-0.70;99.90;;;;;;5051923;28;20017;-51
2023/03/03 05:30:45;;;;;;;45.33;24.05;;;-0.70;99.90;;;;;;5051933;28;20025;-52
2023/03/03 05:33:15;;;;;;;38.75;23.60;;;-0.70;99.90;;;;;;5052049;28;20111;-50
2023/03/03 05:35:41;;;;;;;42.83;24.05;;;-0.70;99.90;;;;;;5051768;28;20475;-51
2023/03/03 05:38:07;;;;;;;43.92;24.17;;;-0.70;99.90;;;;;;5050614;28;20025;-53
2023/03/03 05:40:33;;;;;;;40.33;23.58;;;-0.60;99.90;;;;;;5051739;28;20029;-51
2023/03/03 05:42:58;;;;;;;36.80;23.42;;;-0.60;99.90;;;;;;5051864;28;20083;-54
2023/03/03 05:45:24;;;;;;;42.33;23.67;;;-0.50;99.90;;;;;;5051658;28;20070;-54
2023/03/03 05:47:53;;;;;;;51.85;26.77;;;-0.60;99.90;;;;;;5051804;28;20049;-52
2023/03/03 05:50:21;;;;;;;59.53;28.77;;;-0.50;99.90;;;;;;5051652;28;20027;-51
2023/03/03 05:52:48;;;;;;;65.57;28.45;;;-0.50;99.90;;;;;;5051543;28;20025;-52
2023/03/03 05:55:14;;;;;;;44.58;23.85;;;-0.40;99.90;;;;;;5051624;28;20101;-53
2023/03/03 05:57:39;;;;;;;55.05;27.35;;;-0.40;99.90;;;;;;5051479;28;20100;-52
2023/03/03 06:00:07;;;;;;;61.60;28.35;;;-0.40;99.90;;;;;;5051567;28;20025;-50
2023/03/03 06:02:33;;;;;;;53.67;27.80;;;-0.30;99.90;;;;;;5051424;28;20021;-52
2023/03/03 06:04:59;;;;;;;54.05;26.33;;;-0.20;99.90;;;;;;5051340;28;20087;-52
2023/03/03 06:07:25;;;;;;;51.83;26.50;;;-0.10;99.90;;;;;;5047514;28;20025;-54
2023/03/03 06:09:50;;;;;;;64.50;26.92;;;0.00;99.90;;;;;;5050505;28;20032;-52
2023/03/03 06:12:16;;;;;;;46.95;24.63;;;0.00;99.90;;;;;;5051278;28;20025;-52
2023/03/03 06:14:42;;;;;;;46.80;23.17;;;0.10;99.90;;;;;;5050730;28;20025;-51
2023/03/03 06:17:07;;;;;;;37.85;22.27;;;0.20;99.90;;;;;;5051130;28;20036;-55
2023/03/03 06:19:33;;;;;;;34.10;21.33;;;0.30;99.90;;;;;;5050963;28;20029;-51
2023/03/03 06:21:59;;;;;;;39.83;22.45;;;0.40;99.90;;;;;;5051259;28;20037;-51
2023/03/03 06:24:28;;;;;;;37.88;21.10;;;0.40;99.90;;;;;;5050943;28;20047;-53
2023/03/03 06:26:55;;;;;;;38.75;22.45;;;0.50;99.90;;;;;;5051467;28;20043;-52
2023/03/03 06:29:21;;;;;;;42.05;23.27;;;0.50;99.90;;;;;;5055214;28;20056;-51
2023/03/03 06:31:46;;;;;;;40.35;22.55;;;0.70;99.90;;;;;;5055227;28;20059;-50
2023/03/03 06:34:12;;;;;;;47.63;22.35;;;0.70;99.90;;;;;;5055438;28;20530;-54
2023/03/03 06:36:38;;;;;;;42.72;23.80;;;0.80;99.90;;;;;;5055440;28;20017;-53
2023/03/03 06:39:03;;;;;;;48.75;24.42;;;0.80;99.90;;;;;;5055216;28;20123;-53
2023/03/03 06:41:29;;;;;;;39.70;23.52;;;0.90;99.90;;;;;;5055008;28;20033;-51
2023/03/03 06:43:55;;;;;;;43.70;23.65;;;1.00;99.90;;;;;;5054410;28;20032;-53
2023/03/03 06:46:21;;;;;;;37.97;23.60;;;1.10;99.90;;;;;;5054964;28;20483;-53
2023/03/03 06:48:47;;;;;;;39.67;23.80;;;1.00;99.90;;;;;;5055074;28;20033;-51
2023/03/03 06:51:25;;;;;;;44.83;23.48;;;1.00;99.90;;;;;;5054411;28;20024;-51
2023/03/03 06:53:54;;;;;;;41.67;24.17;;;1.00;99.90;;;;;;5054591;28;20009;-52
2023/03/03 06:56:21;;;;;;;44.58;24.02;;;1.10;99.90;;;;;;5054348;28;20021;-53
2023/03/03 06:58:47;;;;;;;42.08;24.40;;;1.20;99.90;;;;;;5054238;28;20051;-51
2023/03/03 07:01:16;;;;;;;42.03;25.25;;;1.20;99.90;;;;;;5054501;28;20116;-50
2023/03/03 07:03:42;;;;;;;39.65;23.25;;;1.30;99.90;;;;;;5054262;28;20116;-50
2023/03/03 07:06:29;;;;;;;35.95;22.92;;;1.40;99.90;;;;;;5054305;28;20484;-51
2023/03/03 07:08:56;;;;;;;37.63;23.13;;;1.50;99.90;;;;;;5054316;28;20432;-52
2023/03/03 07:11:23;;;;;;;43.00;23.23;;;1.60;99.90;;;;;;5053965;28;20037;-53
2023/03/03 07:13:53;;;;;;;40.63;24.00;;;1.70;99.90;;;;;;5054142;28;20052;-53
2023/03/03 07:16:25;;;;;;;36.33;21.77;;;1.80;99.90;;;;;;5054336;28;20025;-51
2023/03/03 07:18:53;;;;;;;50.15;24.15;;;2.00;99.90;;;;;;5054289;28;20060;-52
2023/03/03 07:21:29;;;;;;;44.85;23.42;;;2.20;99.90;;;;;;5054214;28;20108;-50
2023/03/03 07:23:56;;;;;;;68.22;35.55;;;2.40;99.90;;;;;;5054269;28;20036;-51
2023/03/03 07:26:31;;;;;;;53.28;28.98;;;2.40;99.90;;;;;;5054073;28;20025;-53
2023/03/03 07:29:27;;;;;;;42.42;24.92;;;2.50;99.90;;;;;;5054171;28;20029;-50
2023/03/03 07:31:58;;;;;;;38.30;21.75;;;2.70;99.90;;;;;;5053597;28;20037;-54
2023/03/03 07:34:43;;;;;;;39.72;22.80;;;2.70;99.90;;;;;;5054239;28;20342;-53
2023/03/03 07:37:17;;;;;;;36.22;22.80;;;2.90;99.90;;;;;;5054019;28;20356;-52
2023/03/03 07:39:44;;;;;;;44.70;25.35;;;2.80;1.00;;;;;;5053266;28;20021;-51
2023/03/03 07:42:39;;;;;;;49.83;27.27;;;2.90;1.00;;;;;;5053735;28;20451;-51
2023/03/03 07:45:27;;;;;;;68.38;28.80;;;2.90;1.00;;;;;;5054072;28;20064;-50
2023/03/03 07:48:08;;;;;;;43.97;24.42;;;3.00;1.00;;;;;;5052220;28;20484;-52
2023/03/03 07:50:34;;;;;;;66.70;37.47;;;3.00;1.00;;;;;;5053579;28;20029;-50
2023/03/03 07:53:01;;;;;;;56.00;28.67;;;3.00;1.00;;;;;;5053594;28;20032;-51
2023/03/03 07:55:37;;;;;;;44.53;26.35;;;3.00;1.00;;;;;;5053687;28;20120;-51
2023/03/03 07:58:15;;;;;;;44.78;26.92;;;3.10;1.00;;;;;;5053472;28;20031;-52
2023/03/03 08:01:18;;;;;;;44.45;26.80;;;3.00;1.00;;;;;;5053430;28;20372;-51
2023/03/03 08:03:45;;;;;;;48.63;26.85;;;3.00;2.40;;;;;;5053711;28;20029;-51
2023/03/03 08:06:31;;;;;;;50.42;27.05;;;3.00;1.00;;;;;;5053148;28;20029;-51
2023/03/03 08:09:20;;;;;;;47.65;26.73;;;3.10;12.30;;;;;;5053262;28;20017;-49
2023/03/03 08:12:00;;;;;;;48.17;27.45;;;3.20;3.50;;;;;;5053012;28;20045;-51
2023/03/03 08:14:32;;;;;;;46.42;26.83;;;3.20;12.90;;;;;;5052976;28;20044;-50
2023/03/03 08:16:58;;;;;;;66.70;34.55;;;3.40;9.80;;;;;;5053147;28;20032;-51
2023/03/03 08:19:24;;;;;;;50.30;30.05;;;3.50;1.00;;;;;;5053063;28;20472;-52
2023/03/03 08:21:51;;;;;;;39.45;25.75;;;3.60;1.00;;;;;;5052666;28;20036;-52
2023/03/03 08:24:17;;;;;;;49.22;28.45;;;3.80;1.00;;;;;;5052616;28;20051;-53
2023/03/03 08:26:43;;;;;;;49.75;29.20;;;4.10;1.00;;;;;;5053063;28;20075;-52
2023/03/03 08:29:10;;;;;;;56.95;31.30;;;4.20;1.00;;;;;;5053125;28;20418;-51
2023/03/03 08:31:36;;;;;;;59.03;31.23;;;4.30;1.00;;;;;;5052917;28;20048;-50
2023/03/03 08:34:03;;;;;;;52.30;30.25;;;4.40;1.00;;;;;;5052667;28;20029;-52
2023/03/03 08:36:30;;;;;;;63.13;35.13;;;4.60;1.00;;;;;;5052314;28;20395;-50
2023/03/03 08:38:55;;;;;;;67.82;34.17;;;4.80;1.00;;;;;;5052698;28;20472;-52
2023/03/03 08:41:21;;;;;;;60.88;32.95;;;4.90;1.00;;;;;;5052400;28;20044;-50
2023/03/03 08:44:09;;;;;;;60.17;35.30;;;5.20;1.00;;;;;;5052999;28;20028;-51
2023/03/03 08:46:34;;;;;;;54.90;31.95;;;5.50;1.00;;;;;;5052675;28;20364;-51
2023/03/03 08:49:00;;;;;;;64.32;34.38;;;5.60;1.00;;;;;;5052981;28;20029;-50
2023/03/03 08:51:26;;;;;;;66.10;35.45;;;5.70;1.00;;;;;;5051370;28;20025;-50
2023/03/03 08:53:51;;;;;;;66.63;38.17;;;5.80;1.00;;;;;;5052666;28;20112;-50
2023/03/03 08:56:17;;;;;;;68.03;37.80;;;5.90;1.00;;;;;;5052394;28;20021;-50
2023/03/03 08:58:46;;;;;;;70.40;38.75;;;6.10;1.00;;;;;;5052113;28;20464;-50
2023/03/03 09:01:15;;;;;;;67.22;37.28;;;6.20;1.00;;;;;;5052591;28;20075;-51
2023/03/03 09:03:41;;;;;;;68.13;37.53;;;6.30;1.00;;;;;;5052391;28;20356;-49
2023/03/03 09:06:07;;;;;;;71.68;37.95;;;6.50;1.00;;;;;;5052150;28;20025;-51
2023/03/03 09:08:33;;;;;;;68.63;40.13;;;6.60;1.00;;;;;;5051921;28;20056;-52
2023/03/03 09:10:59;;;;;;;63.78;36.47;;;6.70;1.00;;;;;;5052049;28;20044;-51
2023/03/03 09:13:26;;;;;;;63.13;38.67;;;6.70;1.00;;;;;;5051671;28;20021;-50
2023/03/03 09:15:51;;;;;;;72.70;39.05;;;6.70;1.00;;;;;;5051957;28;20018;-49
2023/03/03 09:18:21;;;;;;;72.75;39.22;;;6.50;1.00;;;;;;5052282;28;20075;-51
2023/03/03 09:20:56;;;;;;;77.88;39.72;;;6.60;1.00;;;;;;5052033;28;20024;-54
2023/03/03 09:23:41;;;;;;;77.07;41.00;;;6.60;1.00;;;;;;5051821;28;20484;-51
2023/03/03 09:26:28;;;;;;;71.10;37.35;;;6.70;1.00;;;;;;5051946;28;20021;-53
2023/03/03 09:29:12;;;;;;;70.95;40.10;;;6.80;1.00;;;;;;5051661;28;20021;-54
2023/03/03 09:31:41;;;;;;;;;;;6.80;99.90;;;;;;5051987;28;20033;-49
2023/03/03 09:34:21;;;;;;;89.63;39.78;;;6.80;99.90;;;;;;5052022;28;19911;-49
2023/03/03 09:36:48;;;;;;;69.97;40.50;;;6.70;1.00;;;;;;5050428;28;20078;-49
2023/03/03 09:39:35;;;;;;;73.45;39.63;;;6.90;1.00;;;;;;5052216;28;20024;-52
2023/03/03 09:42:10;;;;;;;70.60;38.88;;;7.10;99.90;;;;;;5053431;28;20519;-52
2023/03/03 09:45:00;;;;;;;76.93;40.55;;;7.00;99.90;;;;;;5051470;28;20423;-50
2023/03/03 09:47:45;;;;;;;93.25;42.45;;;7.00;99.90;;;;;;5052870;28;20456;-50
2023/03/03 09:50:21;;;;;;;72.20;39.05;;;6.90;99.90;;;;;;5052171;28;20543;-55
2023/03/03 09:52:59;;;;;;;73.97;40.55;;;7.00;1.00;;;;;;5051973;28;20108;-52
2023/03/03 09:55:41;;;;;;;68.65;39.05;;;7.10;99.90;;;;;;5051446;28;20028;-49
2023/03/03 09:58:48;;;;;;;72.20;40.20;;;7.10;99.90;;;;;;5052585;28;20021;-51
2023/03/03 10:01:21;;;;;;;64.60;37.03;;;7.20;99.90;;;;;;5054172;28;20045;-53
2023/03/03 10:04:11;;;;;;;72.78;39.70;;;7.30;99.90;;;;;;5054597;28;20502;-49
2023/03/03 10:06:37;;;;;;;83.45;41.30;;;7.30;99.90;;;;;;5050534;28;20040;-51
2023/03/03 10:09:32;;;;;;;76.22;42.42;;;7.40;99.90;;;;;;5052505;28;20021;-53
2023/03/03 10:12:09;;;;;;;71.18;39.40;;;7.30;99.90;;;;;;5052906;28;20064;-54
2023/03/03 10:14:48;;;;;;;75.10;39.80;;;7.40;99.90;;;;;;5052001;28;20462;-50
2023/03/03 10:17:34;;;;;;;74.80;39.53;;;7.60;99.90;;;;;;5053256;28;20027;-51
2023/03/03 10:20:27;;;;;;;67.88;38.40;;;7.80;99.90;;;;;;5051935;28;20062;-51
2023/03/03 10:23:06;;;;;;;64.90;37.67;;;7.90;49.40;;;;;;5052303;28;20033;-52
2023/03/03 10:25:42;;;;;;;72.53;39.00;;;8.10;99.90;;;;;;5051058;28;20029;-54
2023/03/03 10:28:39;;;;;;;72.68;42.92;;;7.80;59.10;;;;;;5051344;28;20029;-50
2023/03/03 10:31:26;;;;;;;66.70;38.20;;;8.00;99.90;;;;;;5050116;28;20082;-51
2023/03/03 10:34:05;;;;;;;67.50;38.10;;;8.80;1.00;;;;;;5051226;28;20032;-50
2023/03/03 10:36:56;;;;;;;63.60;38.00;;;9.10;99.90;;;;;;5051088;28;20108;-49
2023/03/03 10:39:38;;;;;;;62.80;37.85;;;9.40;99.90;;;;;;5050049;28;20021;-51
2023/03/03 10:42:37;;;;;;;64.10;37.40;;;9.50;99.90;;;;;;5052264;28;20021;-56
2023/03/03 10:45:22;;;;;;;70.13;38.42;;;9.70;1.00;;;;;;5050613;28;20167;-50
2023/03/03 10:48:04;;;;;;;65.68;38.90;;;10.20;1.00;;;;;;5051461;28;20029;-55
2023/03/03 10:50:49;;;;;;;67.95;39.28;;;11.00;1.00;;;;;;5051467;28;20112;-50
2023/03/03 10:53:20;;;;;;;68.75;41.60;;;10.80;99.90;;;;;;5050075;28;20506;-49
2023/03/03 10:55:45;;;;;;;70.60;40.22;;;11.20;1.00;;;;;;5049045;28;20053;-53
2023/03/03 10:58:56;;;;;;;62.58;37.33;;;10.90;99.90;;;;;;5048661;28;20051;-52
2023/03/03 11:01:38;;;;;;;75.97;39.38;;;11.00;74.30;;;;;;5050600;28;20109;-53
2023/03/03 11:04:15;;;;;;;62.05;38.17;;;11.30;99.90;;;;;;5050126;28;20032;-50
2023/03/03 11:06:58;;;;;;;67.95;38.63;;;11.00;1.00;;;;;;5049861;28;20021;-53
2023/03/03 11:09:39;;;;;;;66.55;37.95;;;10.40;1.90;;;;;;5048791;28;20373;-54
2023/03/03 11:12:27;;;;;;;66.00;42.13;;;10.70;5.00;;;;;;5049307;28;20038;-49
2023/03/03 11:15:17;;;;;;;65.93;39.92;;;10.40;2.10;;;;;;5050499;28;20041;-51
2023/03/03 11:18:03;;;;;;;76.40;40.17;;;10.60;1.00;;;;;;5054207;28;20021;-51
2023/03/03 11:20:38;;;;;;;64.95;40.85;;;10.70;1.00;;;;;;5053673;28;20052;-52
2023/03/03 11:23:28;;;;;;;65.55;39.45;;;11.10;1.00;;;;;;5054807;28;20047;-51
2023/03/03 11:26:34;;;;;;;71.60;36.83;;;11.50;1.00;;;;;;5054143;28;20086;-51
2023/03/03 11:29:30;;;;;;;68.00;39.72;;;11.60;1.00;;;;;;5054333;28;20017;-55
2023/03/03 11:32:22;;;;;;;65.22;37.17;;;11.80;1.00;;;;;;5054090;28;20033;-51
2023/03/03 11:35:18;;;;;;;76.60;39.45;;;11.50;1.00;;;;;;5053481;28;20036;-51
2023/03/03 11:37:46;;;;;;;66.18;39.67;;;13.10;1.00;;;;;;5053793;28;20445;-51
2023/03/03 11:40:44;;;;;;;67.43;38.35;;;14.40;1.00;;;;;;5052039;28;20120;-51
2023/03/03 11:43:20;;;;;;;60.42;37.47;;;15.00;99.90;;;;;;5051948;28;20060;-52
2023/03/03 11:46:04;;;;;;;65.03;37.03;;;16.10;1.00;;;;;;5052898;28;20036;-53
2023/03/03 11:48:42;;;;;;;66.28;40.05;;;16.90;1.00;;;;;;5052321;28;20032;-51
2023/03/03 11:51:22;;;;;;;60.80;35.53;;;16.20;1.00;;;;;;5054173;28;20045;-50
2023/03/03 11:53:54;;;;;;;64.90;36.72;;;15.80;1.00;;;;;;5053364;28;20392;-52
2023/03/03 11:56:28;;;;;;;65.60;39.25;;;17.40;99.90;;;;;;5054413;28;20036;-51
2023/03/03 11:59:23;;;;;;;60.58;37.05;;;18.50;1.00;;;;;;5055631;28;20029;-50
2023/03/03 12:02:10;;;;;;;61.13;37.83;;;19.10;1.00;;;;;;5053559;28;20029;-51
2023/03/03 12:05:01;;;;;;;57.28;36.88;;;16.70;1.00;;;;;;5054225;28;20028;-52
2023/03/03 12:07:42;;;;;;;61.90;38.28;;;18.10;1.00;;;;;;5052830;28;20124;-50
2023/03/03 12:10:28;;;;;;;57.22;37.97;;;17.50;1.00;;;;;;5053758;28;20049;-51
2023/03/03 12:13:13;;;;;;;60.40;36.83;;;18.30;1.00;;;;;;5053443;28;20040;-51
2023/03/03 12:15:49;;;;;;;57.35;35.78;;;19.50;1.00;;;;;;5053108;28;20108;-52
2023/03/03 12:18:33;;;;;;;57.28;36.65;;;18.50;1.00;;;;;;5052896;28;20021;-50
2023/03/03 12:21:29;;;;;;;58.00;39.08;;;18.10;1.00;;;;;;5053537;28;20509;-52
2023/03/03 12:24:24;;;;;;;61.78;38.55;;;17.70;1.00;;;;;;5053111;28;20032;-52
2023/03/03 12:26:58;;;;;;;61.08;38.80;;;19.70;1.00;;;;;;5053408;28;20025;-50
2023/03/03 12:30:00;;;;;;;57.70;37.55;;;19.20;1.00;;;;;;5052931;28;20577;-50
2023/03/03 12:32:46;;;;;;;60.95;38.13;;;18.40;1.00;;;;;;5052892;28;20036;-52
2023/03/03 12:35:33;;;;;;;52.92;37.28;;;19.00;1.00;;;;;;5052781;28;20020;-51
2023/03/03 12:38:20;;;;;;;61.78;38.95;;;19.50;41.70;;;;;;5053097;28;20025;-51
2023/03/03 12:44:28;;;;;;;62.28;40.10;;;20.50;70.90;;;;;;5053180;28;20071;-50
2023/03/03 12:47:29;;;;;;;61.60;38.28;;;20.60;1.00;;;;;;5052383;28;20044;-50
2023/03/03 12:49:54;;;;;;;58.83;37.05;;;20.40;49.90;;;;;;5049130;28;20674;-51
2023/03/03 12:52:32;;;;;;;70.43;40.17;;;20.60;7.30;;;;;;5051953;28;20041;-51
2023/03/03 12:54:57;;;;;;;60.15;36.53;;;18.00;54.50;;;;;;5052682;28;20365;-50
2023/03/03 12:57:29;;;;;;;58.75;36.85;;;19.40;24.90;;;;;;5051925;28;20025;-51
2023/03/03 13:00:29;;;;;;;66.07;37.67;;;20.00;95.40;;;;;;5052617;28;20071;-51
2023/03/03 13:03:24;;;;;;;71.72;36.72;;;19.50;54.00;;;;;;5052239;28;20029;-50
2023/03/03 13:06:04;;;;;;;61.35;36.88;;;19.80;87.20;;;;;;5051954;28;20041;-51